Map

Track Data

SID SEASON NUMBER BASIN SUBBASIN NAME ISO_TIME NATURE LAT LON WMO_WIND WMO_PRES WMO_AGENCY TRACK_TYPE DIST2LAND LANDFALL IFLAG USA_AGENCY USA_ATCF_ID USA_LAT USA_LON USA_RECORD USA_STATUS USA_WIND USA_PRES USA_SSHS USA_R34_NE USA_R34_SE USA_R34_SW USA_R34_NW USA_R50_NE USA_R50_SE USA_R50_SW USA_R50_NW USA_R64_NE USA_R64_SE USA_R64_SW USA_R64_NW USA_POCI USA_ROCI USA_RMW USA_EYE TOKYO_LAT TOKYO_LON TOKYO_GRADE TOKYO_WIND TOKYO_PRES TOKYO_R50_DIR TOKYO_R50_LONG TOKYO_R50_SHORT TOKYO_R30_DIR TOKYO_R30_LONG TOKYO_R30_SHORT TOKYO_LAND CMA_LAT CMA_LON CMA_CAT CMA_WIND CMA_PRES HKO_LAT HKO_LON HKO_CAT HKO_WIND HKO_PRES NEWDELHI_LAT NEWDELHI_LON NEWDELHI_GRADE NEWDELHI_WIND NEWDELHI_PRES NEWDELHI_CI NEWDELHI_DP NEWDELHI_POCI REUNION_LAT REUNION_LON REUNION_TYPE REUNION_WIND REUNION_PRES REUNION_TNUM REUNION_CI REUNION_RMW REUNION_R34_NE REUNION_R34_SE REUNION_R34_SW REUNION_R34_NW REUNION_R50_NE REUNION_R50_SE REUNION_R50_SW REUNION_R50_NW REUNION_R64_NE REUNION_R64_SE REUNION_R64_SW REUNION_R64_NW BOM_LAT BOM_LON BOM_TYPE BOM_WIND BOM_PRES BOM_TNUM BOM_CI BOM_RMW BOM_R34_NE BOM_R34_SE BOM_R34_SW BOM_R34_NW BOM_R50_NE BOM_R50_SE BOM_R50_SW BOM_R50_NW BOM_R64_NE BOM_R64_SE BOM_R64_SW BOM_R64_NW BOM_ROCI BOM_POCI BOM_EYE BOM_POS_METHOD BOM_PRES_METHOD NADI_LAT NADI_LON NADI_CAT NADI_WIND NADI_PRES WELLINGTON_LAT WELLINGTON_LON WELLINGTON_WIND WELLINGTON_PRES DS824_LAT DS824_LON DS824_STAGE DS824_WIND DS824_PRES TD9636_LAT TD9636_LON TD9636_STAGE TD9636_WIND TD9636_PRES TD9635_LAT TD9635_LON TD9635_WIND TD9635_PRES TD9635_ROCI NEUMANN_LAT NEUMANN_LON NEUMANN_CLASS NEUMANN_WIND NEUMANN_PRES MLC_LAT MLC_LON MLC_CLASS MLC_WIND MLC_PRES USA_GUST BOM_GUST BOM_GUST_PER REUNION_GUST REUNION_GUST_PER USA_SEAHGT USA_SEARAD_NE USA_SEARAD_SE USA_SEARAD_SW USA_SEARAD_NW STORM_SPEED STORM_DIR
1990076S12165 1990 22 SP MM RAE 1990-03-17 06:00:00 TS -12.0000 165.000 main 323 313 O___________O_ jtwc_sh SH261990 -12.0000 165.000 20 -1 -12.0000 165.000 TC 20 7 155
1990076S12165 1990 22 SP MM RAE 1990-03-17 09:00:00 TS -12.3299 165.155 main 308 268 P___________P_ SH261990 -12.3299 165.155 20 -1 -12.3299 165.155 TC 20 7 147
1990076S12165 1990 22 SP MM RAE 1990-03-17 12:00:00 TS -12.6000 165.400 30 997 wellington main 268 229 O___________O_ jtwc_sh SH261990 -12.6000 165.400 20 -1 -12.6000 165.400 TC 20 8 125
1990076S12165 1990 22 SP MM RAE 1990-03-17 15:00:00 TS -12.7601 165.785 main 229 217 P___________P_ SH261990 -12.7601 165.785 20 -1 -12.7601 165.785 TC 20 8 104
1990076S12165 1990 22 SP MM RAE 1990-03-17 18:00:00 TS -12.8000 166.200 main 217 213 O___________O_ jtwc_sh SH261990 -12.8000 166.200 20 -1 -12.8000 166.200 TC 20 7 90
1990076S12165 1990 22 SP MM RAE 1990-03-17 21:00:00 TS -12.7600 166.545 main 213 212 P___________P_ SH261990 -12.7600 166.545 20 -1 -12.7600 166.545 TC 20 6 71
1990076S12165 1990 22 SP MM RAE 1990-03-18 00:00:00 TS -12.6000 166.800 30 997 wellington main 236 236 O___________O_ jtwc_sh SH261990 -12.6000 166.800 20 -1 -12.6000 166.800 TC 20 6 43
1990076S12165 1990 22 SP MM RAE 1990-03-18 03:00:00 TS -12.3149 166.968 main 272 272 P___________P_ SH261990 -12.3149 166.968 20 -1 -12.3149 166.968 TC 20 6 18
1990076S12165 1990 22 SP MM RAE 1990-03-18 06:00:00 TS -12.0000 167.000 main 305 305 O___________O_ jtwc_sh SH261990 -12.0000 167.000 20 -1 -12.0000 167.000 TC 20 6 352
1990076S12165 1990 22 SP MM RAE 1990-03-18 09:00:00 TS -11.7625 166.887 main 326 326 P___________P_ SH261990 -11.7625 166.887 20 -1 -11.7625 166.887 TC 20 5 324
1990076S12165 1990 22 SP MM RAE 1990-03-18 12:00:00 TS -11.6000 166.700 30 997 wellington main 347 347 O___________O_ jtwc_sh SH261990 -11.6000 166.700 20 -1 -11.6000 166.700 TC 20 4 309
1990076S12165 1990 22 SP MM RAE 1990-03-18 15:00:00 TS -11.5050 166.557 main 358 358 P___________P_ SH261990 -11.5050 166.557 20 -1 -11.5050 166.557 TC 20 3 289
1990076S12165 1990 22 SP MM RAE 1990-03-18 18:00:00 TS -11.5000 166.400 main 358 349 O___________O_ jtwc_sh SH261990 -11.5000 166.400 20 -1 -11.5000 166.400 TC 20 4 260
1990076S12165 1990 22 SP MM RAE 1990-03-18 21:00:00 TS -11.5700 166.178 main 349 342 P___________P_ SH261990 -11.5700 166.178 20 -1 -11.5700 166.178 TC 20 4 243
1990076S12165 1990 22 SP MM RAE 1990-03-19 00:00:00 TS -11.7000 166.000 30 997 wellington main 342 331 O___________O_ jtwc_sh SH261990 -11.7000 166.000 20 -1 -11.7000 166.000 TC 20 4 217
1990076S12165 1990 22 SP MM RAE 1990-03-19 03:00:00 TS -11.8500 165.962 main 331 309 P___________P_ SH261990 -11.8500 165.962 20 -1 -11.8500 165.962 TC 20 3 0
1990076S12165 1990 22 SP MM RAE 1990-03-19 06:00:00 TS -12.0000 166.000 main 309 298 O___________O_ jtwc_sh SH261990 -12.0000 166.000 20 -1 -12.0000 166.000 TC 20 3 164
1990076S12165 1990 22 SP MM RAE 1990-03-19 09:00:00 TS -12.1075 166.043 main 298 285 P___________P_ SH261990 -12.1075 166.043 20 -1 -12.1075 166.043 TC 20 2 153
1990076S12165 1990 22 SP MM RAE 1990-03-19 12:00:00 TS -12.2000 166.100 30 997 wellington main 285 274 O___________O_ jtwc_sh SH261990 -12.2000 166.100 20 -1 -12.2000 166.100 TC 20 2 153
1990076S12165 1990 22 SP MM RAE 1990-03-19 15:00:00 TS -12.3000 166.143 main 274 261 P___________P_ SH261990 -12.3000 166.143 20 -1 -12.3000 166.143 TC 20 2 153
1990076S12165 1990 22 SP MM RAE 1990-03-19 18:00:00 TS -12.4000 166.200 main 261 248 O___________O_ jtwc_sh SH261990 -12.4000 166.200 20 -1 -12.4000 166.200 TC 20 2 148
1990076S12165 1990 22 SP MM RAE 1990-03-19 21:00:00 TS -12.4924 166.263 main 248 236 P___________P_ SH261990 -12.4924 166.263 20 -1 -12.4924 166.263 TC 20 3 136
1990076S12165 1990 22 SP MM RAE 1990-03-20 00:00:00 TS -12.6000 166.400 30 997 wellington main 236 224 O___________O_ jtwc_sh SH261990 -12.6000 166.400 20 -1 -12.6000 166.400 TC 20 4 127
1990076S12165 1990 22 SP MM RAE 1990-03-20 03:00:00 TS -12.7118 166.558 main 223 204 P___________P_ SH261990 -12.7118 166.558 20 -1 -12.7118 166.558 TC 20 7 117
1990076S12165 1990 22 SP MM RAE 1990-03-20 06:00:00 TS -12.9000 167.000 main 206 201 O___________O_ jtwc_sh SH261990 -12.9000 167.000 20 -1 -12.9000 167.000 TC 20 14 109
1990076S12165 1990 22 SP MM RAE 1990-03-20 09:00:00 TS -13.1525 167.894 main 218 218 P___________P_ SH261990 -13.1525 167.894 20 -1 -13.1525 167.894 TC 20 22 109
1990076S12165 1990 22 SP MM RAE 1990-03-20 12:00:00 TS -13.6000 169.100 30 997 wellington main 266 266 O___________O_ jtwc_sh SH261990 -13.6000 169.100 20 -1 -13.6000 169.100 TC 20 28 115
1990076S12165 1990 22 SP MM RAE 1990-03-20 15:00:00 TS -14.3487 170.486 main 366 366 P___________P_ SH261990 -14.3487 170.486 20 -1 -14.3487 170.486 TC 20 31 121
1990076S12165 1990 22 SP MM RAE 1990-03-20 18:00:00 TS -15.2000 171.800 main 445 445 O___________O_ jtwc_sh SH261990 -15.2000 171.800 20 -1 -15.2000 171.800 TC 20 27 126
1990076S12165 1990 22 SP MM RAE 1990-03-20 21:00:00 TS -15.9442 172.773 main 523 432 P___________P_ SH261990 -15.9442 172.773 22 -1 -15.9442 172.773 TC 22 21 132
1990076S12165 1990 22 SP MM RAE 1990-03-21 00:00:00 TS -16.6000 173.400 30 997 wellington main 432 381 O___________O_ jtwc_sh SH261990 -16.6000 173.400 25 -1 -16.6000 173.400 TC 25 16 145
1990076S12165 1990 22 SP MM RAE 1990-03-21 03:00:00 TS -17.2087 173.713 main 381 372 P___________P_ SH261990 -17.1294 173.728 25 -1 -17.1294 173.728 TC 25 11 165
1990076S12165 1990 22 SP MM RAE 1990-03-21 06:00:00 TS -17.6834 173.706 main 372 370 O___________O_ jtwc_sh SH261990 -17.6000 173.800 25 -1 -17.6000 173.800 TC 25 9 186
1990076S12165 1990 22 SP MM RAE 1990-03-21 09:00:00 TS -18.1418 173.614 main 380 380 P___________P_ SH261990 -18.1075 173.795 25 -1 -18.1075 173.795 TC 25 9 194
1990076S12165 1990 22 SP MM RAE 1990-03-21 12:00:00 TS -18.5667 173.467 30 997 wellington main 396 396 O_______O___O_ jtwc_sh SH261990 -18.6000 173.700 25 -1 -18.5000 173.000 30 997 -18.6000 173.700 TC 25 9 196
1990076S12165 1990 22 SP MM RAE 1990-03-21 15:00:00 TS -18.9912 173.363 main 416 416 P_______P___P_ SH261990 -19.0725 173.593 27 -1 -18.8596 172.972 32 995 -19.0725 173.593 TC 27 9 191
1990076S12165 1990 22 SP MM RAE 1990-03-21 18:00:00 TS -19.4016 173.291 main 439 439 O_______P___O_ jtwc_sh SH261990 -19.5000 173.500 30 -1 -19.2254 172.956 35 993 -19.5000 173.500 TC 30 8 185
1990076S12165 1990 22 SP MM RAE 1990-03-21 21:00:00 TS -19.7728 173.287 main 457 457 P_______P___P_ SH261990 -19.8575 173.477 32 -1 -19.6035 172.961 37 991 -19.8575 173.477 TC 32 7 177
1990076S12165 1990 22 SP MM RAE 1990-03-22 00:00:00 TS -20.1333 173.333 40 990 wellington main 472 472 O_______O___O_ jtwc_sh SH261990 -20.2000 173.500 35 0 -20.0000 173.000 40 990 -20.2000 173.500 TC 35 8 173
1990076S12165 1990 22 SP MM RAE 1990-03-22 03:00:00 TS -20.5428 173.380 main 487 487 P_______P___P_ SH261990 -20.6075 173.528 35 0 -20.4134 173.085 41 989 -20.6075 173.528 TC 37 8 170
1990076S12165 1990 22 SP MM RAE 1990-03-22 06:00:00 TS -20.9371 173.478 main 505 505 O_______P___O_ jtwc_sh SH261990 -21.0000 173.600 35 0 -20.8114 173.234 42 988 -21.0000 173.600 TC 40 8 163
1990076S12165 1990 22 SP MM RAE 1990-03-22 09:00:00 TS -21.2861 173.615 main 527 527 P_______P___P_ SH261990 -21.3523 173.690 35 0 -21.1537 173.466 43 987 -21.3523 173.690 TC 42 7 149
1990076S12165 1990 22 SP MM RAE 1990-03-22 12:00:00 TS -21.5333 173.867 45 987 wellington main 520 508 O_______O___O_ jtwc_sh SH261990 -21.6000 173.900 35 0 -21.4000 173.800 45 987 -21.6000 173.900 TC 45 7 121
1990076S12165 1990 22 SP MM RAE 1990-03-22 15:00:00 TS -21.6188 174.217 main 508 476 P_______P___P_ SH261990 -21.6874 174.275 35 0 -21.4817 174.101 46 986 -21.6874 174.275 TC 47 8 97
1990076S12165 1990 22 SP MM RAE 1990-03-22 18:00:00 TS -21.6235 174.707 main 476 443 O_______P___O_ jtwc_sh SH261990 -21.7000 174.800 35 0 -21.4705 174.520 47 986 -21.7000 174.800 TC 50 10 91
1990076S12165 1990 22 SP MM RAE 1990-03-22 21:00:00 TS -21.6360 175.288 main 443 424 P_______P___P_ SH261990 -21.7418 175.368 35 0 -21.4245 175.129 48 985 -21.7418 175.368 TC 52 13 92
1990076S12165 1990 22 SP MM RAE 1990-03-23 00:00:00 TS -21.6667 176.067 50 985 wellington main 421 391 O_______O___O_ jtwc_sh SH261990 -21.8000 176.100 35 0 -21.4000 176.000 50 985 -21.8000 176.100 TC 55 17 93
1990076S12165 1990 22 SP MM RAE 1990-03-23 03:00:00 TS -21.7123 177.084 main 389 382 P_______P___P_ SH261990 -21.8696 177.018 35 0 -21.3978 177.215 50 985 -21.8696 177.018 TC 57 20 95
1990076S12165 1990 22 SP MM RAE 1990-03-23 06:00:00 TS -21.8333 178.233 50 985 wellington main 391 391 O_______O___O_ jtwc_sh SH261990 -22.0000 178.100 35 0 -21.5000 178.500 50 985 -22.0000 178.100 TC 60 21 99
1990076S12165 1990 22 SP MM RAE 1990-03-23 09:00:00 TS -22.0659 179.366 main 443 443 P_______P___P_ SH261990 -22.2046 179.263 35 0 -21.7886 179.573 50 985 -22.2046 179.263 TC 57 22 105
1990076S12165 1990 22 SP MM RAE 1990-03-23 12:00:00 TS -22.4000 180.533 50 985 wellington main 516 516 O_______O___O_ jtwc_sh SH261990 -22.5000 -179.500 35 0 -22.2000 -179.400 50 985 -22.5000 -179.500 TC 55 23 109
1990076S12165 1990 22 SP MM RAE 1990-03-23 15:00:00 TS -22.8009 181.723 main 611 611 P_______P___P_ SH261990 -22.8842 -178.258 37 0 -22.6343 -178.315 47 986 -22.8842 -178.258 TC 52 24 111
1990076S12165 1990 22 SP MM RAE 1990-03-23 18:00:00 TS -23.2333 182.933 45 987 wellington main 718 718 O_______O___O_ jtwc_sh SH261990 -23.3000 -177.000 40 0 -23.1000 -177.200 45 987 -23.3000 -177.000 TC 50 23 110
1990076S12165 1990 22 SP MM RAE 1990-03-23 21:00:00 TS -23.5841 184.085 main 832 832 P_______P___P_ SH261990 -23.6097 -175.814 40 0 -23.5329 -176.115 42 988 -23.6097 -175.814 TC 45 23 109
1990076S12165 1990 22 SP MM RAE 1990-03-24 00:00:00 TS -24.0000 185.355 40 990 wellington main 958 958 O_______O___O_ jtwc_sh SH261990 -24.0000 -174.500 40 0 -24.0000 -174.900 40 990 -24.0000 -174.500 TC 40 28 111
1990076S12165 1990 22 SP MM RAE 1990-03-24 03:00:00 TS -24.5695 186.934 main 1117 1117 P_______P___P_ SH261990 -24.5932 -172.896 40 0 -24.5122 -173.423 40 990 -24.6150 -172.795 TC 37 32 112
1990076S12165 1990 22 SP MM RAE 1990-03-24 06:00:00 TS -25.2111 188.589 40 990 wellington main 1277 1277 O_______O___O_ jtwc_sh SH261990 -25.3000 -171.100 40 0 -25.1000 -171.800 40 990 -25.3000 -171.100 TC 35 29 114
1990076S12165 1990 22 SP MM RAE 1990-03-24 09:00:00 TS -25.7730 189.904 main 1359 1359 ________P___P_ SH261990 -1 -25.7048 -170.263 37 992 -25.8412 -169.930 TC 32 29 117
1990076S12165 1990 22 SP MM RAE 1990-03-24 12:00:00 TS -26.5000 191.414 35 995 wellington main 1468 1468 ________O___O_ -1 -26.5000 -168.500 35 995 -26.5000 -168.700 TC 30 37 119
1990076S12165 1990 22 SP MM RAE 1990-03-24 15:00:00 TS -27.5429 193.540 main 1642 1642 ________P___P_ -1 -27.6004 -166.221 35 995 -27.4279 -166.938 TC 27 46 119
1990076S12165 1990 22 SP MM RAE 1990-03-24 18:00:00 TS -28.7250 195.950 35 995 wellington main 1863 1863 ________O___O_ -1 -28.8000 -163.800 35 995 -28.5000 -164.800 TC 25 49 119
1990076S12165 1990 22 SP MM RAE 1990-03-24 21:00:00 NR -29.8942 198.381 main 2016 2016 ________P_____ -1 -29.8942 -161.619 32 996 TC 44 119
1990076S12165 1990 22 SP MM RAE 1990-03-25 00:00:00 NR -30.9000 200.400 30 997 wellington main 2130 ________O_____ -1 -30.9000 -159.600 30 997 40 120

Digital Typhoon Data and Search

About IBTrACS Database

This database is a web-friendly format of International Best Track Archive for Climate Stewardship (IBTrACS), a global best track data archive curated by NOAA dating back to 1842.

Updated: 2021-10-21